Latest Weather Observations for Horsham

IDV60801

Issued at 8:32 pm EDT Friday 18 January 2019 (issued every 10 minutes, with the page automatically refreshed every 10 minutes)

About weather observations | Map of weather stations | Latest weather observations for VIC | Other Formats
Station Details ID: 079100 Name: HORSHAM AERODROME Lat: -36.67 Lon: 142.17 Height: 133.8 m
Data from the previous 72 hours. | See also: Recent months at Horsham
Date/Time
EDT
Temp
°C
App
Temp
°C
Dew
Point
°C
Rel
Hum
%
Delta-T
°C
Wind Press
QNH
hPa
Press
MSL
hPa
Rain since
9am
mm
Dir  Spd
km/h
Gust
km/h
Spd
kts
Gust
kts
18/08:30pm 23.0 17.8 10.4 45 7.0 SSW 28 39 15 21 1014.5 1014.0 0.0
18/08:00pm 23.7 18.1 11.4 46 6.9 SSW 32 43 17 23 1013.6 1013.0 0.0
18/07:30pm 24.5 18.6 11.1 43 7.6 SSW 33 44 18 24 1012.5 1012.0 0.0
18/07:00pm 25.1 18.0 10.9 41 8.0 SSW 39 54 21 29 1011.8 1011.3 0.0
18/06:30pm 25.9 20.0 11.3 40 8.3 SW 33 46 18 25 1011.9 1011.4 0.0
18/06:00pm 25.7 21.2 12.5 44 7.7 SW 28 37 15 20 1011.9 1011.4 0.0
18/05:30pm 26.0 21.2 11.7 41 8.2 WSW 28 35 15 19 1012.1 1011.6 0.0
18/05:00pm 26.7 22.4 13.1 43 8.0 SW 28 37 15 20 1011.9 1011.4 0.0
18/04:30pm 28.1 23.6 12.5 38 9.2 WSW 28 39 15 21 1011.8 1011.3 0.0
18/04:00pm 27.7 24.9 14.3 43 8.1 W 22 30 12 16 1011.3 1010.8 0.0
18/03:30pm 27.6 25.7 15.3 47 7.5 W 19 24 10 13 1010.8 1010.3 0.0
18/03:00pm 27.5 24.6 15.2 47 7.5 W 24 35 13 19 1010.6 1010.1 0.0
18/02:30pm 28.2 25.2 15.8 47 7.7 WSW 26 35 14 19 1010.4 1009.9 0.0
18/02:00pm 30.8 27.3 14.4 36 10.0 WSW 26 35 14 19 1010.0 1009.5 0.0
18/01:30pm 29.8 27.2 15.9 43 8.7 W 24 33 13 18 1009.8 1009.3 0.0
18/01:00pm 28.8 27.2 16.4 47 7.8 WSW 20 30 11 16 1009.8 1009.3 0.0
18/12:30pm 28.1 27.4 16.4 49 7.3 WSW 15 26 8 14 1010.0 1009.5 0.0
18/12:00pm 27.3 27.4 16.6 52 6.7 SW 11 19 6 10 1009.7 1009.2 0.0
18/11:30am 26.9 26.2 17.4 56 6.0 SSW 17 24 9 13 1009.4 1008.9 0.0
18/11:00am 26.9 25.4 16.8 54 6.3 SW 20 26 11 14 1009.0 1008.5 0.0
18/10:30am 26.5 26.1 16.1 52 6.4 SW 13 15 7 8 1009.2 1008.7 0.0
18/10:00am 26.2 27.8 15.9 53 6.3 SE 2 9 1 5 1008.5 1008.0 0.0
18/09:30am 25.1 26.9 17.3 62 4.9 SSE 4 7 2 4 1009.4 1008.9 0.0
18/09:00am 24.1 25.6 17.6 67 4.1 NNW 6 7 3 4 1009.6 1009.1 0.2
18/08:30am 23.9 24.2 16.9 65 4.3 W 11 15 6 8 1009.9 1009.4 0.2
18/08:00am 23.8 23.9 16.6 64 4.4 ESE 11 13 6 7 1008.3 1007.8 0.2
18/07:30am 22.1 22.7 16.8 72 3.3 SSE 9 11 5 6 1008.2 1007.7 0.2
18/07:00am 21.8 21.1 16.3 71 3.4 SW 15 20 8 11 1008.6 1008.1 0.2
18/06:30am 21.3 21.4 16.5 74 2.9 WSW 11 13 6 7 1008.7 1008.2 0.2
18/06:00am 21.2 21.6 16.2 73 3.0 SW 9 13 5 7 1007.9 1007.4 0.2
18/05:30am 21.5 21.9 16.2 72 3.2 SW 9 13 5 7 1008.1 1007.6 0.2
18/05:00am 21.5 22.7 16.0 71 3.3 ENE 4 9 2 5 1007.5 1007.0 0.2
18/04:30am 21.2 21.4 15.7 71 3.3 NE 9 11 5 6 1006.7 1006.1 0.2
18/04:00am 21.6 20.7 15.9 70 3.4 ENE 15 17 8 9 1006.6 1006.0 0.2
18/03:30am 21.5 20.7 16.2 72 3.2 ENE 15 17 8 9 1006.7 1006.1 0.2
18/03:00am 21.8 21.1 16.5 72 3.2 ENE 15 17 8 9 1006.9 1006.3 0.2
18/02:30am 21.9 21.9 17.1 74 3.0 ENE 13 15 7 8 1007.3 1006.7 0.2
18/02:00am 21.7 21.4 17.3 76 2.7 E 15 17 8 9 1007.7 1007.2 0.2
18/01:30am 22.3 22.5 17.7 75 2.9 ENE 13 17 7 9 1008.0 1007.5 0.2
18/01:00am 22.8 22.2 17.5 72 3.3 E 17 19 9 10 1008.4 1007.9 0.2
18/12:30am 22.2 22.6 18.2 78 2.5 SE 13 15 7 8 1008.9 1008.4 0.2
18/12:00am 23.4 24.2 17.2 68 3.9 SSE 9 15 5 8 1009.8 1009.3 0.2
 
Date/Time
EDT
Temp
°C
App
Temp
°C
Dew
Point
°C
Rel
Hum
%
Delta-T
°C
Wind Press
QNH
hPa
Press
MSL
hPa
Rain since
9am
mm
Dir  Spd
km/h
Gust
km/h
Spd
kts
Gust
kts
17/11:30pm 27.2 26.0 13.9 44 8.0 S 13 17 7 9 1010.5 1010.0 0.0
17/11:00pm 27.5 25.3 13.4 41 8.4 S 17 20 9 11 1009.9 1009.4 0.0
17/10:30pm 27.4 25.6 13.4 42 8.3 SSW 15 17 8 9 1010.4 1009.9 0.0
17/10:00pm 27.7 26.1 12.9 40 8.7 S 13 15 7 8 1010.0 1009.5 0.0
17/09:30pm 28.5 26.7 13.2 39 9.1 SSW 15 19 8 10 1009.9 1009.4 0.0
17/09:00pm 29.4 26.6 13.2 37 9.7 SW 20 24 11 13 1009.4 1008.9 0.0
17/08:30pm 29.9 26.7 13.2 36 10.0 SW 22 30 12 16 1009.2 1008.7 0.0
17/08:00pm 30.3 27.1 13.1 34 10.3 SW 22 28 12 15 1008.9 1008.4 0.0
17/07:30pm 30.6 27.0 13.0 34 10.5 WSW 24 32 13 17 1008.9 1008.4 0.0
17/07:00pm 31.0 25.8 12.8 32 10.9 WSW 32 43 17 23 1008.8 1008.3 0.0
17/06:30pm 31.4 24.3 12.2 30 11.4 SW 41 52 22 28 1008.6 1008.1 0.0
17/06:00pm 32.9 27.8 12.0 28 12.4 WSW 30 41 16 22 1008.4 1007.9 0.0
17/05:30pm 33.8 28.2 11.6 26 13.2 W 32 46 17 25 1008.4 1007.9 0.0
17/05:00pm 34.3 29.0 11.4 25 13.6 W 30 41 16 22 1008.1 1007.6 0.0
17/04:30pm 35.1 29.9 11.5 24 14.0 W 30 39 16 21 1008.0 1007.5 0.0
17/04:00pm 34.1 27.1 11.3 25 13.5 WSW 39 54 21 29 1008.5 1008.0 0.0
17/03:30pm 36.0 30.2 10.9 22 14.9 WSW 32 44 17 24 1008.3 1007.8 0.0
17/03:00pm 35.5 31.5 11.8 24 14.2 WSW 24 35 13 19 1008.4 1007.9 0.0
17/02:30pm 34.9 30.6 12.0 25 13.7 WSW 26 37 14 20 1008.9 1008.4 0.0
17/02:00pm 34.5 30.4 12.8 27 13.1 SSW 26 39 14 21 1009.2 1008.7 0.0
17/01:30pm 34.3 29.0 12.6 27 13.1 SW 32 44 17 24 1008.9 1008.4 0.0
17/01:20pm 34.5 29.3 12.8 27 13.1 SW 32 50 17 27 1009.3 1008.8 0.0
17/01:00pm 34.9 28.3 12.5 25 13.5 WSW 39 54 21 29 1009.5 1009.0 0.0
17/12:30pm 34.3 27.9 12.0 25 13.3 WSW 37 48 20 26 1009.5 1009.0 0.0
17/12:00pm 35.0 27.3 11.4 24 14.0 WSW 43 65 23 35 1009.5 1009.0 0.0
17/11:35am 34.9 28.5 10.7 23 14.2 WSW 35 56 19 30 1009.4 1008.9 0.0
17/11:30am 35.3 29.9 11.0 23 14.4 WSW 30 46 16 25 1009.3 1008.8 0.0
17/11:29am 35.3 30.3 11.0 23 14.4 WSW 28 46 15 25 1009.3 1008.8 0.0
17/11:00am 34.3 30.8 10.8 24 13.8 W 20 30 11 16 1009.1 1008.6 0.0
17/10:30am 32.6 31.3 11.2 27 12.5 W 9 13 5 7 1009.1 1008.6 0.0
17/10:00am 30.9 30.5 12.3 32 11.0 W 6 7 3 4 1009.6 1009.1 0.0
17/09:30am 28.6 29.4 12.5 37 9.5 CALM 0 4 0 2 1009.9 1009.4 0.0
17/09:00am 27.4 26.8 13.4 42 8.3 S 9 11 5 6 1009.9 1009.4 0.0
17/08:30am 25.6 24.9 14.4 50 6.7 SW 11 17 6 9 1010.2 1009.7 0.0
17/08:00am 25.4 25.0 14.2 50 6.7 WNW 9 20 5 11 1010.4 1009.9 0.0
17/07:30am 25.8 25.0 13.0 45 7.5 WSW 9 13 5 7 1010.4 1009.9 0.0
17/07:00am 26.2 23.8 12.6 43 7.9 SW 17 20 9 11 1010.0 1009.5 0.0
17/06:30am 26.9 23.5 11.4 38 8.9 SW 20 26 11 14 1009.1 1008.6 0.0
17/06:00am 27.7 24.6 12.1 38 9.1 W 20 28 11 15 1009.2 1008.7 0.0
17/05:30am 26.9 24.9 11.4 38 8.9 NW 13 28 7 15 1008.5 1008.0 0.0
17/05:00am 24.5 23.7 11.1 43 7.6 ENE 6 9 3 5 1007.2 1006.6 0.0
17/04:30am 24.4 22.9 10.7 42 7.7 SE 9 13 5 7 1006.8 1006.2 0.0
17/04:00am 25.1 22.8 10.6 40 8.2 E 13 15 7 8 1006.5 1005.9 0.0
17/03:30am 25.9 23.2 10.5 38 8.7 SE 15 17 8 9 1006.6 1006.0 0.0
17/03:00am 26.2 23.1 10.4 37 8.9 ENE 17 20 9 11 1006.3 1005.7 0.0
17/02:30am 26.3 24.0 10.5 37 8.9 SSW 13 20 7 11 1008.0 1007.5 0.0
17/02:00am 27.6 25.5 9.9 33 10.0 N 11 13 6 7 1007.7 1007.2 0.0
17/01:30am 27.7 23.8 9.5 32 10.1 NNE 20 24 11 13 1008.1 1007.6 0.0
17/01:00am 25.7 22.8 9.5 36 9.0 NNE 15 19 8 10 1008.1 1007.6 0.0
17/12:30am 25.4 23.5 10.4 39 8.4 NNE 11 15 6 8 1008.3 1007.8 0.0
17/12:00am 25.6 23.3 10.6 39 8.4 ENE 13 15 7 8 1008.1 1007.6 0.0
 
Date/Time
EDT
Temp
°C
App
Temp
°C
Dew
Point
°C
Rel
Hum
%
Delta-T
°C
Wind Press
QNH
hPa
Press
MSL
hPa
Rain since
9am
mm
Dir  Spd
km/h
Gust
km/h
Spd
kts
Gust
kts
16/11:30pm 25.6 23.2 10.2 38 8.6 ENE 13 15 7 8 1008.2 1007.7 0.0
16/11:00pm 26.3 22.7 10.5 37 8.9 E 20 20 11 11 1008.2 1007.7 0.0
16/10:30pm 26.5 23.5 10.6 37 9.0 E 17 17 9 9 1008.2 1007.7 0.0
16/10:00pm 26.3 23.3 9.2 34 9.4 ESE 15 17 8 9 1008.2 1007.7 0.0
16/09:30pm 28.1 25.1 9.4 31 10.4 ENE 15 17 8 9 1008.1 1007.6 0.0
16/09:00pm 29.2 26.4 9.9 30 10.9 NE 15 17 8 9 1008.3 1007.8 0.0
16/08:30pm 29.6 25.9 10.2 30 11.0 ENE 20 26 11 14 1008.1 1007.6 0.0
16/08:00pm 30.2 25.7 10.2 29 11.4 E 24 28 13 15 1007.9 1007.4 0.0
16/07:30pm 30.5 26.9 9.9 28 11.7 E 19 24 10 13 1008.0 1007.5 0.0
16/07:00pm 31.0 26.2 10.4 28 11.9 E 26 35 14 19 1007.6 1007.1 0.0
16/06:30pm 31.1 26.8 12.0 31 11.3 E 26 33 14 18 1007.7 1007.2 0.0
16/06:00pm 31.8 28.1 12.6 31 11.5 E 24 30 13 16 1008.0 1007.5 0.0
16/05:30pm 32.8 29.9 12.4 29 12.2 SE 19 24 10 13 1008.4 1007.9 0.0
16/05:00pm 32.8 29.2 11.9 28 12.4 SSE 22 28 12 15 1008.7 1008.2 0.0
16/04:30pm 33.0 28.0 10.9 26 12.9 S 28 35 15 19 1008.8 1008.3 0.0
16/04:00pm 34.0 27.6 10.6 24 13.7 SSE 35 46 19 25 1008.6 1008.1 0.0
16/03:30pm 36.0 30.2 9.5 20 15.4 S 30 37 16 20 1008.8 1008.3 0.0
16/03:00pm 39.1 31.9 0.5 9 19.8 SSW 28 35 15 19 1008.9 1008.4 0.0
16/02:49pm 37.4 30.0 -0.8 9 19.0 SW 28 46 15 25 1009.1 1008.6 0.0
16/02:30pm 36.9 31.0 1.6 11 18.2 WSW 22 28 12 15 1009.7 1009.2 0.0
16/02:00pm 37.4 33.1 3.2 12 18.1 WSW 15 22 8 12 1009.5 1009.0 0.0
16/01:30pm 36.7 32.1 3.8 13 17.5 W 17 20 9 11 1009.8 1009.3 0.0
16/01:00pm 36.5 30.7 2.5 12 17.8 WNW 22 30 12 16 1009.9 1009.4 0.0
16/12:30pm 36.5 31.9 3.7 13 17.4 NW 17 26 9 14 1010.0 1009.5 0.0
16/12:00pm 36.3 33.0 4.6 14 17.1 W 11 17 6 9 1010.0 1009.5 0.0
16/11:30am 35.3 32.4 4.8 15 16.4 WSW 9 17 5 9 1010.0 1009.5 0.0
16/11:00am 32.9 30.6 5.5 18 14.7 SW 7 11 4 6 1009.8 1009.3 0.0
16/10:30am 31.4 28.5 6.5 21 13.5 S 11 17 6 9 1009.8 1009.3 0.0
16/10:00am 30.6 27.5 7.1 23 12.8 SSE 13 17 7 9 1009.8 1009.3 0.0
16/09:30am 28.4 25.4 7.6 27 11.3 SE 13 17 7 9 1009.8 1009.3 0.0
16/09:00am 26.2 24.3 10.4 37 8.9 ESE 11 15 6 8 1009.9 1009.4 0.0
16/08:30am 24.1 22.6 11.8 46 7.0 SE 11 13 6 7 1010.1 1009.6 0.0
16/08:00am 22.5 20.2 11.9 51 6.0 SE 15 19 8 10 1009.9 1009.4 0.0
16/07:30am 20.3 18.1 10.7 54 5.3 SE 13 17 7 9 1009.5 1009.0 0.0
16/07:00am 18.1 15.2 8.1 52 5.2 ESE 13 15 7 8 1009.2 1008.7 0.0
16/06:30am 16.8 13.5 6.3 50 5.2 E 13 15 7 8 1008.9 1008.4 0.0
16/06:00am 16.4 13.1 4.4 45 5.7 SE 11 13 6 7 1008.8 1008.3 0.0
16/05:30am 16.2 13.0 4.9 47 5.4 SE 11 13 6 7 1008.9 1008.4 0.0
16/05:00am 19.1 15.8 4.8 39 7.0 SSW 11 17 6 9 1009.0 1008.5 0.0
16/04:30am 19.5 16.1 4.0 36 7.4 SE 11 15 6 8 1009.1 1008.6 0.0
16/04:00am 19.6 16.6 4.1 36 7.5 S 9 13 5 7 1008.9 1008.4 0.0
16/03:30am 21.3 18.4 4.4 33 8.3 SSE 9 11 5 6 1009.0 1008.5 0.0
16/03:00am 21.7 19.3 4.3 32 8.5 SSE 6 9 3 5 1009.1 1008.6 0.0
16/02:30am 21.5 18.4 3.7 31 8.6 SSE 9 13 5 7 1009.2 1008.7 0.0
16/02:00am 21.9 18.1 4.0 31 8.8 SSE 13 17 7 9 1009.4 1008.9 0.0
16/01:30am 23.5 19.4 4.5 29 9.5 SSW 15 19 8 10 1009.7 1009.2 0.0
16/01:00am 24.6 20.6 4.9 28 10.0 SSW 15 17 8 9 1009.6 1009.1 0.0
16/12:30am 24.3 19.9 2.5 24 10.5 S 15 17 8 9 1009.5 1009.0 0.0
16/12:00am 27.2 21.9 1.6 19 12.4 SW 19 22 10 12 1009.9 1009.4 0.0
 
Date/Time
EDT
Temp
°C
App
Temp
°C
Dew
Point
°C
Rel
Hum
%
Delta-T
°C
Wind Press
QNH
hPa
Press
MSL
hPa
Rain since
9am
mm
Dir  Spd
km/h
Gust
km/h
Spd
kts
Gust
kts
15/11:30pm 24.4 20.0 -2.2 17 11.8 NNE 11 13 6 7 1009.3 1008.8 0.0
15/11:00pm 27.5 24.1 -2.3 14 13.5 ENE 6 7 3 4 1009.3 1008.8 0.0
15/10:30pm 28.1 24.5 -1.9 14 13.7 ENE 7 9 4 5 1009.2 1008.7 0.0
15/10:00pm 28.4 24.5 -1.6 14 13.9 ENE 9 11 5 6 1008.8 1008.3 0.0
15/09:30pm 31.2 27.8 -0.5 13 15.2 ESE 7 9 4 5 1008.7 1008.2 0.0
15/09:00pm 30.7 26.1 -4.4 10 15.7 SSE 11 15 6 8 1008.8 1008.3 0.0
15/08:55pm 29.7 25.0 -5.1 10 15.3 S 11 15 6 8 1008.8 1008.3 0.0

Other Formats:

Comma delimited format used in spreadsheet applications
http://www.bom.gov.au/fwo/IDV60801/IDV60801.95839.axf

JavaScript Object Notation format (JSON) in row-major order
http://www.bom.gov.au/fwo/IDV60801/IDV60801.95839.json